sensor_id;sensor_type;location;lat;lon;timestamp;pressure;altitude;pressure_sealevel;temperature;humidity
32761;BME280;19126;47.472;7.850;2023-02-07T00:02:16;97928.53;;;-1.32;94.10
32761;BME280;19126;47.472;7.850;2023-02-07T00:04:57;97914.72;;;-1.31;93.79
32761;BME280;19126;47.472;7.850;2023-02-07T00:07:28;97930.81;;;-1.26;94.16
32761;BME280;19126;47.472;7.850;2023-02-07T00:09:56;97928.63;;;-1.35;93.77
32761;BME280;19126;47.472;7.850;2023-02-07T00:12:24;97908.59;;;-1.28;93.35
32761;BME280;19126;47.472;7.850;2023-02-07T00:14:51;97902.75;;;-1.32;93.06
32761;BME280;19126;47.472;7.850;2023-02-07T00:17:21;97895.38;;;-1.41;92.42
32761;BME280;19126;47.472;7.850;2023-02-07T00:19:54;97883.22;;;-1.38;93.24
32761;BME280;19126;47.472;7.850;2023-02-07T00:22:21;97892.47;;;-1.34;94.04
32761;BME280;19126;47.472;7.850;2023-02-07T00:24:48;97885.84;;;-1.39;93.35
32761;BME280;19126;47.472;7.850;2023-02-07T00:27:16;97881.69;;;-1.42;93.04
32761;BME280;19126;47.472;7.850;2023-02-07T00:29:48;97897.41;;;-1.48;92.88
32761;BME280;19126;47.472;7.850;2023-02-07T00:32:24;97871.19;;;-1.58;93.69
32761;BME280;19126;47.472;7.850;2023-02-07T00:34:57;97862.56;;;-1.57;93.69
32761;BME280;19126;47.472;7.850;2023-02-07T00:37:27;97873.59;;;-1.53;94.58
32761;BME280;19126;47.472;7.850;2023-02-07T00:39:57;97862.50;;;-1.55;94.52
32761;BME280;19126;47.472;7.850;2023-02-07T00:42:24;97861.16;;;-1.64;94.59
32761;BME280;19126;47.472;7.850;2023-02-07T00:44:59;97872.72;;;-1.73;94.30
32761;BME280;19126;47.472;7.850;2023-02-07T00:47:28;97871.84;;;-1.73;94.48
32761;BME280;19126;47.472;7.850;2023-02-07T00:49:55;97871.72;;;-1.70;94.55
32761;BME280;19126;47.472;7.850;2023-02-07T00:52:25;97878.81;;;-1.75;95.19
32761;BME280;19126;47.472;7.850;2023-02-07T00:54:53;97863.06;;;-1.88;94.61
32761;BME280;19126;47.472;7.850;2023-02-07T01:00:59;97871.69;;;-2.10;97.20
32761;BME280;19126;47.472;7.850;2023-02-07T01:03:52;97869.50;;;-1.99;96.07
32761;BME280;19126;47.472;7.850;2023-02-07T01:06:28;97876.63;;;-2.06;94.39
32761;BME280;19126;47.472;7.850;2023-02-07T01:09:05;97869.03;;;-2.09;94.34
32761;BME280;19126;47.472;7.850;2023-02-07T01:11:38;97881.63;;;-2.01;95.75
32761;BME280;19126;47.472;7.850;2023-02-07T01:14:18;97878.19;;;-2.01;94.99
32761;BME280;19126;47.472;7.850;2023-02-07T01:16:49;97890.03;;;-1.97;94.65
32761;BME280;19126;47.472;7.850;2023-02-07T01:19:21;97886.81;;;-2.02;95.59
32761;BME280;19126;47.472;7.850;2023-02-07T01:21:53;97899.44;;;-1.96;95.42
32761;BME280;19126;47.472;7.850;2023-02-07T01:24:27;97904.56;;;-1.96;95.63
32761;BME280;19126;47.472;7.850;2023-02-07T01:27:06;97876.50;;;-2.02;95.82
32761;BME280;19126;47.472;7.850;2023-02-07T01:29:36;97874.06;;;-2.06;96.05
32761;BME280;19126;47.472;7.850;2023-02-07T01:32:08;97878.66;;;-2.12;95.72
32761;BME280;19126;47.472;7.850;2023-02-07T01:34:46;97869.31;;;-2.15;96.33
32761;BME280;19126;47.472;7.850;2023-02-07T01:37:14;97870.78;;;-2.09;96.42
32761;BME280;19126;47.472;7.850;2023-02-07T01:39:45;97875.19;;;-2.11;97.24
32761;BME280;19126;47.472;7.850;2023-02-07T01:42:16;97867.44;;;-2.11;96.51
32761;BME280;19126;47.472;7.850;2023-02-07T01:45:02;97873.50;;;-2.12;97.15
32761;BME280;19126;47.472;7.850;2023-02-07T01:47:40;97883.19;;;-2.19;96.46
32761;BME280;19126;47.472;7.850;2023-02-07T01:50:09;97883.03;;;-2.14;97.19
32761;BME280;19126;47.472;7.850;2023-02-07T01:52:37;97884.81;;;-2.16;97.11
32761;BME280;19126;47.472;7.850;2023-02-07T01:55:10;97890.22;;;-2.23;98.38
32761;BME280;19126;47.472;7.850;2023-02-07T01:57:38;97872.13;;;-2.21;98.43
32761;BME280;19126;47.472;7.850;2023-02-07T02:00:10;97877.22;;;-2.19;99.06
32761;BME280;19126;47.472;7.850;2023-02-07T02:02:39;97885.78;;;-2.19;98.90
32761;BME280;19126;47.472;7.850;2023-02-07T02:05:08;97875.59;;;-2.22;99.23
32761;BME280;19126;47.472;7.850;2023-02-07T02:07:36;97899.75;;;-2.25;98.72
32761;BME280;19126;47.472;7.850;2023-02-07T02:10:08;97861.97;;;-2.24;98.13
32761;BME280;19126;47.472;7.850;2023-02-07T02:12:52;97876.84;;;-2.31;98.28
32761;BME280;19126;47.472;7.850;2023-02-07T02:15:29;97881.13;;;-2.31;97.43
32761;BME280;19126;47.472;7.850;2023-02-07T02:18:06;97885.56;;;-2.35;98.67
32761;BME280;19126;47.472;7.850;2023-02-07T02:23:42;97893.94;;;-2.30;99.50
32761;BME280;19126;47.472;7.850;2023-02-07T02:26:53;97897.66;;;-2.37;98.96
32761;BME280;19126;47.472;7.850;2023-02-07T02:29:48;97897.59;;;-2.36;99.72
32761;BME280;19126;47.472;7.850;2023-02-07T02:35:43;97905.28;;;-2.34;100.00
32761;BME280;19126;47.472;7.850;2023-02-07T02:38:15;97911.97;;;-2.30;100.00
32761;BME280;19126;47.472;7.850;2023-02-07T02:40:49;97912.00;;;-2.31;100.00
32761;BME280;19126;47.472;7.850;2023-02-07T02:43:20;97915.56;;;-2.34;100.00
32761;BME280;19126;47.472;7.850;2023-02-07T02:45:55;97919.72;;;-2.31;100.00
32761;BME280;19126;47.472;7.850;2023-02-07T02:48:22;97917.16;;;-2.31;100.00
32761;BME280;19126;47.472;7.850;2023-02-07T02:50:51;97926.63;;;-2.32;99.79
32761;BME280;19126;47.472;7.850;2023-02-07T02:53:19;97924.97;;;-2.33;99.86
32761;BME280;19126;47.472;7.850;2023-02-07T02:56:06;97949.03;;;-2.34;99.93
32761;BME280;19126;47.472;7.850;2023-02-07T02:58:43;97948.03;;;-2.31;99.72
32761;BME280;19126;47.472;7.850;2023-02-07T03:01:18;97949.91;;;-2.35;99.52
32761;BME280;19126;47.472;7.850;2023-02-07T03:04:08;97948.13;;;-2.33;98.65
32761;BME280;19126;47.472;7.850;2023-02-07T03:06:51;97937.88;;;-2.34;97.49
32761;BME280;19126;47.472;7.850;2023-02-07T03:09:27;97956.97;;;-2.40;98.30
32761;BME280;19126;47.472;7.850;2023-02-07T03:11:56;97942.19;;;-2.35;97.82
32761;BME280;19126;47.472;7.850;2023-02-07T03:14:30;97939.91;;;-2.43;97.78
32761;BME280;19126;47.472;7.850;2023-02-07T03:17:05;97938.13;;;-2.41;97.58
32761;BME280;19126;47.472;7.850;2023-02-07T03:19:37;97945.19;;;-2.46;97.01
32761;BME280;19126;47.472;7.850;2023-02-07T03:22:09;97941.72;;;-2.45;97.47
32761;BME280;19126;47.472;7.850;2023-02-07T03:24:40;97931.50;;;-2.46;97.30
32761;BME280;19126;47.472;7.850;2023-02-07T03:27:10;97946.28;;;-2.52;97.60
32761;BME280;19126;47.472;7.850;2023-02-07T03:29:38;97938.56;;;-2.52;98.22
32761;BME280;19126;47.472;7.850;2023-02-07T03:32:07;97950.75;;;-2.57;97.69
32761;BME280;19126;47.472;7.850;2023-02-07T03:34:37;97940.69;;;-2.63;98.78
32761;BME280;19126;47.472;7.850;2023-02-07T03:37:11;97963.06;;;-2.65;98.37
32761;BME280;19126;47.472;7.850;2023-02-07T03:39:40;97963.72;;;-2.60;98.43
32761;BME280;19126;47.472;7.850;2023-02-07T03:42:09;97981.75;;;-2.60;97.90
32761;BME280;19126;47.472;7.850;2023-02-07T03:44:38;97974.22;;;-2.66;98.33
32761;BME280;19126;47.472;7.850;2023-02-07T03:47:07;97976.13;;;-2.71;98.95
32761;BME280;19126;47.472;7.850;2023-02-07T03:49:34;98003.41;;;-2.67;99.74
32761;BME280;19126;47.472;7.850;2023-02-07T03:52:01;97995.00;;;-2.71;98.92
32761;BME280;19126;47.472;7.850;2023-02-07T03:54:29;97989.06;;;-2.73;99.53
32761;BME280;19126;47.472;7.850;2023-02-07T03:56:56;98006.09;;;-2.70;99.32
32761;BME280;19126;47.472;7.850;2023-02-07T03:59:24;98008.75;;;-2.72;99.38
32761;BME280;19126;47.472;7.850;2023-02-07T04:01:51;98010.47;;;-2.72;99.25
32761;BME280;19126;47.472;7.850;2023-02-07T04:04:18;98018.25;;;-2.74;99.93
32761;BME280;19126;47.472;7.850;2023-02-07T04:06:45;98024.28;;;-2.75;99.79
32761;BME280;19126;47.472;7.850;2023-02-07T04:09:12;98028.59;;;-2.75;99.54
32761;BME280;19126;47.472;7.850;2023-02-07T04:11:40;98039.84;;;-2.78;99.46
32761;BME280;19126;47.472;7.850;2023-02-07T04:14:07;98020.97;;;-2.78;100.00
32761;BME280;19126;47.472;7.850;2023-02-07T04:16:34;98040.66;;;-2.77;99.74
32761;BME280;19126;47.472;7.850;2023-02-07T04:19:01;98047.59;;;-2.80;100.00
32761;BME280;19126;47.472;7.850;2023-02-07T04:21:28;98030.44;;;-2.79;99.93
32761;BME280;19126;47.472;7.850;2023-02-07T04:23:55;98063.88;;;-2.79;99.27
32761;BME280;19126;47.472;7.850;2023-02-07T04:26:22;98045.88;;;-2.79;99.58
32761;BME280;19126;47.472;7.850;2023-02-07T04:28:51;98044.13;;;-2.78;99.63
32761;BME280;19126;47.472;7.850;2023-02-07T04:31:18;98051.91;;;-2.80;99.15
32761;BME280;19126;47.472;7.850;2023-02-07T04:33:46;98060.44;;;-2.80;99.64
32761;BME280;19126;47.472;7.850;2023-02-07T04:36:13;98064.81;;;-2.82;99.15
32761;BME280;19126;47.472;7.850;2023-02-07T04:38:40;98047.66;;;-2.81;99.19
32761;BME280;19126;47.472;7.850;2023-02-07T04:41:07;98052.94;;;-2.86;99.42
32761;BME280;19126;47.472;7.850;2023-02-07T04:43:35;98064.13;;;-2.87;99.63
32761;BME280;19126;47.472;7.850;2023-02-07T04:46:05;98065.03;;;-2.88;100.00
32761;BME280;19126;47.472;7.850;2023-02-07T04:48:34;98068.56;;;-2.90;100.00
32761;BME280;19126;47.472;7.850;2023-02-07T04:51:01;98074.53;;;-2.90;100.00
32761;BME280;19126;47.472;7.850;2023-02-07T04:53:28;98089.13;;;-2.90;100.00
32761;BME280;19126;47.472;7.850;2023-02-07T04:55:55;98096.94;;;-2.93;100.00
32761;BME280;19126;47.472;7.850;2023-02-07T04:58:22;98100.44;;;-2.96;100.00
32761;BME280;19126;47.472;7.850;2023-02-07T05:00:49;98103.97;;;-2.99;100.00
32761;BME280;19126;47.472;7.850;2023-02-07T05:03:19;98110.81;;;-2.98;100.00
32761;BME280;19126;47.472;7.850;2023-02-07T05:05:46;98102.19;;;-2.97;100.00
32761;BME280;19126;47.472;7.850;2023-02-07T05:08:13;98115.88;;;-2.96;100.00
32761;BME280;19126;47.472;7.850;2023-02-07T05:10:40;98117.72;;;-3.00;100.00
32761;BME280;19126;47.472;7.850;2023-02-07T05:13:07;98111.75;;;-3.00;100.00
32761;BME280;19126;47.472;7.850;2023-02-07T05:15:34;98115.16;;;-3.00;100.00
32761;BME280;19126;47.472;7.850;2023-02-07T05:18:02;98125.47;;;-3.01;100.00
32761;BME280;19126;47.472;7.850;2023-02-07T05:20:30;98119.56;;;-3.03;100.00
32761;BME280;19126;47.472;7.850;2023-02-07T05:22:57;98117.94;;;-3.06;100.00
32761;BME280;19126;47.472;7.850;2023-02-07T05:25:24;98112.91;;;-3.09;100.00
32761;BME280;19126;47.472;7.850;2023-02-07T05:27:52;98119.88;;;-3.13;100.00
32761;BME280;19126;47.472;7.850;2023-02-07T05:30:19;98123.31;;;-3.14;100.00
32761;BME280;19126;47.472;7.850;2023-02-07T05:32:46;98120.72;;;-3.12;100.00
32761;BME280;19126;47.472;7.850;2023-02-07T05:35:34;98119.03;;;-3.13;100.00
32761;BME280;19126;47.472;7.850;2023-02-07T05:38:01;98100.25;;;-3.15;100.00
32761;BME280;19126;47.472;7.850;2023-02-07T05:40:29;98112.31;;;-3.17;100.00
32761;BME280;19126;47.472;7.850;2023-02-07T05:42:56;98121.66;;;-3.15;100.00
32761;BME280;19126;47.472;7.850;2023-02-07T05:45:23;98132.13;;;-3.21;100.00
32761;BME280;19126;47.472;7.850;2023-02-07T05:47:50;98134.66;;;-3.19;100.00
32761;BME280;19126;47.472;7.850;2023-02-07T05:50:18;98111.56;;;-3.21;100.00
32761;BME280;19126;47.472;7.850;2023-02-07T05:52:46;98099.78;;;-3.27;100.00
32761;BME280;19126;47.472;7.850;2023-02-07T05:55:14;98102.44;;;-3.30;100.00
32761;BME280;19126;47.472;7.850;2023-02-07T05:57:42;98090.59;;;-3.34;100.00
32761;BME280;19126;47.472;7.850;2023-02-07T06:00:11;98086.38;;;-3.36;100.00
32761;BME280;19126;47.472;7.850;2023-02-07T06:02:39;98083.03;;;-3.39;100.00
32761;BME280;19126;47.472;7.850;2023-02-07T06:05:07;98103.78;;;-3.45;100.00
32761;BME280;19126;47.472;7.850;2023-02-07T06:07:34;98102.06;;;-3.44;100.00
32761;BME280;19126;47.472;7.850;2023-02-07T06:10:03;98103.69;;;-3.42;100.00
32761;BME280;19126;47.472;7.850;2023-02-07T06:12:31;98100.50;;;-3.48;100.00
32761;BME280;19126;47.472;7.850;2023-02-07T06:14:58;98115.13;;;-3.50;100.00
32761;BME280;19126;47.472;7.850;2023-02-07T06:17:25;98116.88;;;-3.53;100.00
32761;BME280;19126;47.472;7.850;2023-02-07T06:19:52;98105.13;;;-3.60;100.00
32761;BME280;19126;47.472;7.850;2023-02-07T06:22:19;98117.19;;;-3.62;100.00
32761;BME280;19126;47.472;7.850;2023-02-07T06:24:46;98120.78;;;-3.68;100.00
32761;BME280;19126;47.472;7.850;2023-02-07T06:27:15;98116.59;;;-3.70;100.00
32761;BME280;19126;47.472;7.850;2023-02-07T06:29:43;98119.28;;;-3.75;100.00
32761;BME280;19126;47.472;7.850;2023-02-07T06:32:16;98135.38;;;-3.70;100.00
32761;BME280;19126;47.472;7.850;2023-02-07T06:34:43;98122.50;;;-3.68;100.00
32761;BME280;19126;47.472;7.850;2023-02-07T06:37:10;98109.81;;;-3.73;100.00
32761;BME280;19126;47.472;7.850;2023-02-07T06:39:37;98125.41;;;-3.79;100.00
32761;BME280;19126;47.472;7.850;2023-02-07T06:42:04;98127.84;;;-3.74;100.00
32761;BME280;19126;47.472;7.850;2023-02-07T06:44:33;98118.28;;;-3.71;100.00
32761;BME280;19126;47.472;7.850;2023-02-07T06:47:00;98131.22;;;-3.74;100.00
32761;BME280;19126;47.472;7.850;2023-02-07T06:49:27;98132.19;;;-3.76;100.00
32761;BME280;19126;47.472;7.850;2023-02-07T06:51:54;98132.13;;;-3.75;100.00
32761;BME280;19126;47.472;7.850;2023-02-07T06:54:21;98143.34;;;-3.77;100.00
32761;BME280;19126;47.472;7.850;2023-02-07T06:56:49;98150.94;;;-3.74;100.00
32761;BME280;19126;47.472;7.850;2023-02-07T06:59:16;98163.28;;;-3.86;100.00
32761;BME280;19126;47.472;7.850;2023-02-07T07:01:44;98163.28;;;-3.86;100.00
32761;BME280;19126;47.472;7.850;2023-02-07T07:04:12;98165.78;;;-3.84;100.00
32761;BME280;19126;47.472;7.850;2023-02-07T07:06:39;98154.53;;;-3.80;100.00
32761;BME280;19126;47.472;7.850;2023-02-07T07:09:06;98172.31;;;-3.74;100.00
32761;BME280;19126;47.472;7.850;2023-02-07T07:11:33;98176.56;;;-3.73;100.00
32761;BME280;19126;47.472;7.850;2023-02-07T07:14:01;98186.84;;;-3.73;100.00
32761;BME280;19126;47.472;7.850;2023-02-07T07:16:28;98180.13;;;-3.77;100.00
32761;BME280;19126;47.472;7.850;2023-02-07T07:18:56;98190.47;;;-3.80;100.00
32761;BME280;19126;47.472;7.850;2023-02-07T07:21:23;98194.63;;;-3.76;100.00
32761;BME280;19126;47.472;7.850;2023-02-07T07:23:52;98187.69;;;-3.72;100.00
32761;BME280;19126;47.472;7.850;2023-02-07T07:26:19;98199.66;;;-3.71;100.00
32761;BME280;19126;47.472;7.850;2023-02-07T07:28:46;98204.69;;;-3.68;100.00
32761;BME280;19126;47.472;7.850;2023-02-07T07:31:14;98207.16;;;-3.65;100.00
32761;BME280;19126;47.472;7.850;2023-02-07T07:33:42;98215.22;;;-3.49;100.00
32761;BME280;19126;47.472;7.850;2023-02-07T07:36:11;98222.19;;;-3.24;100.00
32761;BME280;19126;47.472;7.850;2023-02-07T07:38:38;98224.13;;;-3.04;100.00
32761;BME280;19126;47.472;7.850;2023-02-07T07:41:05;98220.91;;;-2.84;100.00
32761;BME280;19126;47.472;7.850;2023-02-07T07:43:32;98215.22;;;-2.67;100.00
32761;BME280;19126;47.472;7.850;2023-02-07T07:45:59;98221.66;;;-2.29;100.00
32761;BME280;19126;47.472;7.850;2023-02-07T07:48:26;98222.88;;;-1.68;100.00
32761;BME280;19126;47.472;7.850;2023-02-07T07:50:53;98229.94;;;-1.27;98.93
32761;BME280;19126;47.472;7.850;2023-02-07T07:53:22;98229.50;;;-0.94;94.04
32761;BME280;19126;47.472;7.850;2023-02-07T07:55:49;98232.25;;;-0.56;92.02
32761;BME280;19126;47.472;7.850;2023-02-07T07:58:17;98230.78;;;-0.41;90.56
32761;BME280;19126;47.472;7.850;2023-02-07T08:00:44;98235.28;;;-0.25;87.81
32761;BME280;19126;47.472;7.850;2023-02-07T08:03:12;98234.28;;;-0.23;85.31
32761;BME280;19126;47.472;7.850;2023-02-07T08:05:39;98236.59;;;-0.17;84.91
32761;BME280;19126;47.472;7.850;2023-02-07T08:08:06;98247.78;;;-0.16;83.01
32761;BME280;19126;47.472;7.850;2023-02-07T08:10:35;98258.09;;;0.05;83.44
32761;BME280;19126;47.472;7.850;2023-02-07T08:13:02;98249.38;;;-0.13;81.80
32761;BME280;19126;47.472;7.850;2023-02-07T08:15:29;98259.59;;;0.10;81.20
32761;BME280;19126;47.472;7.850;2023-02-07T08:17:56;98257.78;;;0.12;80.34
32761;BME280;19126;47.472;7.850;2023-02-07T08:20:24;98249.53;;;0.42;82.57
32761;BME280;19126;47.472;7.850;2023-02-07T08:22:51;98256.03;;;0.70;82.60
32761;BME280;19126;47.472;7.850;2023-02-07T08:25:18;98248.88;;;0.76;79.31
32761;BME280;19126;47.472;7.850;2023-02-07T08:27:47;98248.03;;;0.75;77.29
32761;BME280;19126;47.472;7.850;2023-02-07T08:30:14;98246.84;;;0.82;75.41
32761;BME280;19126;47.472;7.850;2023-02-07T08:32:43;98260.22;;;0.35;74.36
32761;BME280;19126;47.472;7.850;2023-02-07T08:35:10;98251.47;;;0.56;75.48
32761;BME280;19126;47.472;7.850;2023-02-07T08:37:37;98252.78;;;0.84;75.48
32761;BME280;19126;47.472;7.850;2023-02-07T08:40:05;98261.22;;;1.25;77.06
32761;BME280;19126;47.472;7.850;2023-02-07T08:42:33;98253.84;;;1.52;75.38
32761;BME280;19126;47.472;7.850;2023-02-07T08:45:01;98263.06;;;1.58;72.23
32761;BME280;19126;47.472;7.850;2023-02-07T08:47:30;98265.50;;;1.61;71.82
32761;BME280;19126;47.472;7.850;2023-02-07T08:49:57;98263.13;;;1.74;71.78
32761;BME280;19126;47.472;7.850;2023-02-07T08:52:24;98261.31;;;1.23;69.15
32761;BME280;19126;47.472;7.850;2023-02-07T08:54:51;98263.44;;;1.68;71.87
32761;BME280;19126;47.472;7.850;2023-02-07T08:57:18;98261.31;;;1.41;70.78
32761;BME280;19126;47.472;7.850;2023-02-07T08:59:47;98257.91;;;0.86;70.17
32761;BME280;19126;47.472;7.850;2023-02-07T09:02:16;98254.00;;;1.49;70.50
32761;BME280;19126;47.472;7.850;2023-02-07T09:04:43;98253.94;;;1.68;71.30
32761;BME280;19126;47.472;7.850;2023-02-07T09:07:10;98254.91;;;1.48;69.88
32761;BME280;19126;47.472;7.850;2023-02-07T09:09:37;98256.88;;;1.60;69.33
32761;BME280;19126;47.472;7.850;2023-02-07T09:12:05;98257.97;;;1.56;70.05
32761;BME280;19126;47.472;7.850;2023-02-07T09:14:32;98258.78;;;1.92;70.11
32761;BME280;19126;47.472;7.850;2023-02-07T09:16:59;98258.88;;;1.38;69.41
32761;BME280;19126;47.472;7.850;2023-02-07T09:19:28;98255.28;;;2.09;69.43
32761;BME280;19126;47.472;7.850;2023-02-07T09:21:55;98261.22;;;2.45;69.80
32761;BME280;19126;47.472;7.850;2023-02-07T09:24:22;98263.81;;;2.77;68.06
32761;BME280;19126;47.472;7.850;2023-02-07T09:26:49;98266.41;;;2.93;65.63
32761;BME280;19126;47.472;7.850;2023-02-07T09:29:16;98262.69;;;3.13;67.40
32761;BME280;19126;47.472;7.850;2023-02-07T09:31:43;98256.81;;;3.26;65.78
32761;BME280;19126;47.472;7.850;2023-02-07T09:34:11;98259.28;;;2.97;64.82
32761;BME280;19126;47.472;7.850;2023-02-07T09:36:39;98265.22;;;3.45;66.25
32761;BME280;19126;47.472;7.850;2023-02-07T09:39:06;98262.88;;;2.46;64.82
32761;BME280;19126;47.472;7.850;2023-02-07T09:41:38;98270.16;;;2.55;66.43
32761;BME280;19126;47.472;7.850;2023-02-07T09:44:14;98275.78;;;2.63;66.00
32761;BME280;19126;47.472;7.850;2023-02-07T09:46:46;98283.22;;;3.18;67.49
32761;BME280;19126;47.472;7.850;2023-02-07T09:49:22;98281.31;;;3.36;66.93
32761;BME280;19126;47.472;7.850;2023-02-07T09:51:54;98276.63;;;2.80;63.82
32761;BME280;19126;47.472;7.850;2023-02-07T09:54:24;98261.66;;;2.69;65.87
32761;BME280;19126;47.472;7.850;2023-02-07T09:56:54;98255.19;;;3.08;66.15
32761;BME280;19126;47.472;7.850;2023-02-07T09:59:25;98265.47;;;3.10;65.79
32761;BME280;19126;47.472;7.850;2023-02-07T10:01:57;98262.63;;;3.15;65.24
32761;BME280;19126;47.472;7.850;2023-02-07T10:04:32;98263.00;;;3.54;64.78
32761;BME280;19126;47.472;7.850;2023-02-07T10:07:04;98254.19;;;4.01;64.02
32761;BME280;19126;47.472;7.850;2023-02-07T10:09:36;98256.75;;;3.87;61.54
32761;BME280;19126;47.472;7.850;2023-02-07T10:12:10;98262.78;;;3.73;61.97
32761;BME280;19126;47.472;7.850;2023-02-07T10:14:54;98277.88;;;3.66;63.28
32761;BME280;19126;47.472;7.850;2023-02-07T10:17:44;98283.75;;;3.39;62.99
32761;BME280;19126;47.472;7.850;2023-02-07T10:20:26;98268.06;;;3.71;62.80
32761;BME280;19126;47.472;7.850;2023-02-07T10:23:05;98293.91;;;3.28;62.04
32761;BME280;19126;47.472;7.850;2023-02-07T10:25:37;98285.97;;;3.61;62.68
32761;BME280;19126;47.472;7.850;2023-02-07T10:28:38;98289.00;;;3.23;62.09
32761;BME280;19126;47.472;7.850;2023-02-07T10:31:12;98293.53;;;3.50;64.18
32761;BME280;19126;47.472;7.850;2023-02-07T10:33:46;98280.00;;;3.59;63.21
32761;BME280;19126;47.472;7.850;2023-02-07T10:36:14;98290.38;;;3.29;62.41
32761;BME280;19126;47.472;7.850;2023-02-07T10:38:44;98289.59;;;2.80;62.62
32761;BME280;19126;47.472;7.850;2023-02-07T10:41:20;98285.25;;;2.81;64.89
32761;BME280;19126;47.472;7.850;2023-02-07T10:43:48;98282.84;;;2.77;65.36
32761;BME280;19126;47.472;7.850;2023-02-07T10:46:17;98293.28;;;2.92;67.51
32761;BME280;19126;47.472;7.850;2023-02-07T10:48:46;98293.13;;;2.79;65.92
32761;BME280;19126;47.472;7.850;2023-02-07T10:51:20;98289.56;;;2.64;65.48
32761;BME280;19126;47.472;7.850;2023-02-07T10:54:01;98295.34;;;2.53;66.66
32761;BME280;19126;47.472;7.850;2023-02-07T10:56:29;98291.97;;;2.35;65.43
32761;BME280;19126;47.472;7.850;2023-02-07T10:58:57;98285.91;;;2.18;66.45
32761;BME280;19126;47.472;7.850;2023-02-07T11:01:26;98285.75;;;2.22;68.19
32761;BME280;19126;47.472;7.850;2023-02-07T11:03:54;98291.63;;;2.25;69.38
32761;BME280;19126;47.472;7.850;2023-02-07T11:06:26;98286.50;;;2.24;68.97
32761;BME280;19126;47.472;7.850;2023-02-07T11:09:15;98291.66;;;2.41;69.80
32761;BME280;19126;47.472;7.850;2023-02-07T11:11:47;98293.88;;;2.65;68.65
32761;BME280;19126;47.472;7.850;2023-02-07T11:14:16;98299.97;;;2.64;68.31
32761;BME280;19126;47.472;7.850;2023-02-07T11:16:45;98304.50;;;2.60;67.29
32761;BME280;19126;47.472;7.850;2023-02-07T11:19:15;98297.84;;;2.55;67.99
32761;BME280;19126;47.472;7.850;2023-02-07T11:21:43;98293.00;;;2.48;67.91
32761;BME280;19126;47.472;7.850;2023-02-07T11:24:14;98294.47;;;2.70;67.82
32761;BME280;19126;47.472;7.850;2023-02-07T11:26:52;98291.13;;;2.68;68.08
32761;BME280;19126;47.472;7.850;2023-02-07T11:29:20;98287.59;;;2.85;69.18
32761;BME280;19126;47.472;7.850;2023-02-07T11:31:48;98285.47;;;3.08;70.90
32761;BME280;19126;47.472;7.850;2023-02-07T11:34:38;98289.19;;;2.72;67.75
32761;BME280;19126;47.472;7.850;2023-02-07T11:37:17;98283.91;;;2.89;67.98
32761;BME280;19126;47.472;7.850;2023-02-07T11:39:47;98273.94;;;2.66;66.78
32761;BME280;19126;47.472;7.850;2023-02-07T11:42:18;98278.13;;;2.84;68.16
32761;BME280;19126;47.472;7.850;2023-02-07T11:44:47;98278.47;;;2.94;68.69
32761;BME280;19126;47.472;7.850;2023-02-07T11:47:15;98269.50;;;3.00;68.87
32761;BME280;19126;47.472;7.850;2023-02-07T11:49:45;98275.72;;;2.97;67.36
32761;BME280;19126;47.472;7.850;2023-02-07T11:52:14;98273.00;;;3.15;68.88
32761;BME280;19126;47.472;7.850;2023-02-07T11:54:46;98272.94;;;2.84;68.24
32761;BME280;19126;47.472;7.850;2023-02-07T11:57:16;98269.09;;;2.91;67.90
32761;BME280;19126;47.472;7.850;2023-02-07T11:59:45;98280.56;;;3.03;69.02
32761;BME280;19126;47.472;7.850;2023-02-07T12:02:16;98272.91;;;3.16;69.50
32761;BME280;19126;47.472;7.850;2023-02-07T12:04:44;98278.28;;;3.13;68.18
32761;BME280;19126;47.472;7.850;2023-02-07T12:07:12;98277.69;;;3.24;69.35
32761;BME280;19126;47.472;7.850;2023-02-07T12:09:43;98279.94;;;3.30;69.42
32761;BME280;19126;47.472;7.850;2023-02-07T12:12:14;98270.13;;;3.35;69.90
32761;BME280;19126;47.472;7.850;2023-02-07T12:14:47;98272.31;;;3.11;69.06
32761;BME280;19126;47.472;7.850;2023-02-07T12:17:22;98279.06;;;2.99;67.32
32761;BME280;19126;47.472;7.850;2023-02-07T12:19:52;98280.56;;;3.03;66.17
32761;BME280;19126;47.472;7.850;2023-02-07T12:22:21;98274.28;;;2.91;68.18
32761;BME280;19126;47.472;7.850;2023-02-07T12:24:52;98264.63;;;2.93;68.04
32761;BME280;19126;47.472;7.850;2023-02-07T12:27:24;98270.84;;;2.91;67.21
32761;BME280;19126;47.472;7.850;2023-02-07T12:30:02;98268.78;;;2.82;68.39
32761;BME280;19126;47.472;7.850;2023-02-07T12:32:35;98253.44;;;2.93;69.81
32761;BME280;19126;47.472;7.850;2023-02-07T12:35:10;98260.44;;;3.07;70.60
32761;BME280;19126;47.472;7.850;2023-02-07T12:37:41;98266.06;;;2.99;68.93
32761;BME280;19126;47.472;7.850;2023-02-07T12:40:17;98269.00;;;2.93;68.45
32761;BME280;19126;47.472;7.850;2023-02-07T12:42:48;98260.31;;;2.94;69.35
32761;BME280;19126;47.472;7.850;2023-02-07T12:45:26;98258.53;;;2.95;69.52
32761;BME280;19126;47.472;7.850;2023-02-07T12:47:58;98257.94;;;3.05;69.39
32761;BME280;19126;47.472;7.850;2023-02-07T12:50:41;98248.56;;;3.03;69.50
32761;BME280;19126;47.472;7.850;2023-02-07T12:53:20;98247.84;;;3.15;70.12
32761;BME280;19126;47.472;7.850;2023-02-07T12:55:55;98247.78;;;3.17;70.85
32761;BME280;19126;47.472;7.850;2023-02-07T12:58:33;98246.00;;;3.17;69.27
32761;BME280;19126;47.472;7.850;2023-02-07T13:01:11;98251.03;;;3.20;70.10
32761;BME280;19126;47.472;7.850;2023-02-07T13:06:43;98256.09;;;3.07;69.66
32761;BME280;19126;47.472;7.850;2023-02-07T13:09:18;98247.97;;;3.14;70.83
32761;BME280;19126;47.472;7.850;2023-02-07T13:11:53;98249.34;;;3.19;72.54
32761;BME280;19126;47.472;7.850;2023-02-07T13:14:28;98244.09;;;3.21;72.99
32761;BME280;19126;47.472;7.850;2023-02-07T13:17:11;98247.78;;;3.17;71.88
32761;BME280;19126;47.472;7.850;2023-02-07T13:19:45;98244.38;;;3.00;68.26
32761;BME280;19126;47.472;7.850;2023-02-07T13:22:22;98242.59;;;3.01;68.60
32761;BME280;19126;47.472;7.850;2023-02-07T13:24:51;98249.06;;;2.93;68.10
32761;BME280;19126;47.472;7.850;2023-02-07T13:27:19;98253.75;;;3.03;69.21
32761;BME280;19126;47.472;7.850;2023-02-07T13:29:47;98245.13;;;3.02;69.88
32761;BME280;19126;47.472;7.850;2023-02-07T13:32:19;98241.22;;;2.95;68.99
32761;BME280;19126;47.472;7.850;2023-02-07T13:34:48;98252.06;;;3.02;69.09